Time,TemperatureF,DewpointF,PressureIn,WindDirection,WindDirectionDegrees,WindSpeedMPH,WindSpeedGustMPH,Humidity,HourlyPrecipIn,Conditions,Clouds,dailyrainin,SoftwareType,DateUTC
2013-05-20 00:10:00,53.1,52.3,30.13,SSW,202,0.0,-999.0,97,-99.99,,,0.00,Acu-Link.com,2013-05-20 04:10:00,
2013-05-20 00:25:00,53.1,52.3,30.12,NE,45,0.0,-999.0,97,-99.99,,,0.00,Acu-Link.com,2013-05-20 04:25:00,
2013-05-20 00:41:00,53.1,52.3,30.12,East,90,0.0,-999.0,97,-99.99,,,0.00,Acu-Link.com,2013-05-20 04:41:00,
2013-05-20 00:56:00,53.1,52.3,30.11,NNE,22,0.0,-999.0,97,-99.99,,,0.00,Acu-Link.com,2013-05-20 04:56:00,
2013-05-20 01:11:00,53.1,52.5,30.11,NW,315,0.0,-999.0,98,-99.99,,,0.01,Acu-Link.com,2013-05-20 05:11:00,
2013-05-20 01:27:00,53.1,52.5,30.10,NNE,22,0.0,-999.0,98,-99.99,,,0.01,Acu-Link.com,2013-05-20 05:27:00,
2013-05-20 01:42:00,53.1,52.5,30.09,NE,45,0.0,-999.0,98,-99.99,,,0.01,Acu-Link.com,2013-05-20 05:42:00,
2013-05-20 01:57:00,53.1,52.5,30.08,ENE,67,0.0,-999.0,98,-99.99,,,0.01,Acu-Link.com,2013-05-20 05:57:00,
2013-05-20 02:13:00,53.1,52.5,30.07,East,90,0.0,-999.0,98,-99.99,,,0.01,Acu-Link.com,2013-05-20 06:13:00,
2013-05-20 02:28:00,53.1,52.5,30.07,ENE,67,0.0,-999.0,98,-99.99,,,0.02,Acu-Link.com,2013-05-20 06:28:00,
2013-05-20 02:43:00,53.1,52.5,30.06,NE,45,0.0,-999.0,98,-99.99,,,0.02,Acu-Link.com,2013-05-20 06:43:00,
2013-05-20 02:58:00,53.1,52.5,30.05,SSE,157,0.0,-999.0,98,-99.99,,,0.02,Acu-Link.com,2013-05-20 06:58:00,
2013-05-20 03:14:00,53.1,52.5,30.05,NE,45,0.0,-999.0,98,-99.99,,,0.02,Acu-Link.com,2013-05-20 07:14:00,
2013-05-20 03:29:00,53.1,52.5,30.05,ENE,67,0.0,-999.0,98,-99.99,,,0.02,Acu-Link.com,2013-05-20 07:29:00,
2013-05-20 03:44:00,53.2,52.6,30.03,NE,45,0.0,-999.0,98,-99.99,,,0.02,Acu-Link.com,2013-05-20 07:44:00,
2013-05-20 04:00:00,53.2,52.6,30.03,NE,45,0.0,-999.0,98,-99.99,,,0.02,Acu-Link.com,2013-05-20 08:00:00,
2013-05-20 04:15:00,53.2,52.6,30.03,NNW,337,0.0,-999.0,98,-99.99,,,0.02,Acu-Link.com,2013-05-20 08:15:00,
2013-05-20 04:30:00,53.2,52.6,30.02,NNE,22,0.0,-999.0,98,-99.99,,,0.02,Acu-Link.com,2013-05-20 08:30:00,
2013-05-20 04:46:00,53.2,52.6,30.01,East,90,0.0,-999.0,98,-99.99,,,0.02,Acu-Link.com,2013-05-20 08:46:00,
2013-05-20 05:01:00,53.2,52.6,30.00,NW,315,0.0,-999.0,98,-99.99,,,0.02,Acu-Link.com,2013-05-20 09:01:00,
2013-05-20 05:16:00,53.2,52.6,29.99,NE,45,0.0,-999.0,98,-99.99,,,0.02,Acu-Link.com,2013-05-20 09:16:00,
2013-05-20 05:31:00,53.2,52.6,29.99,NNW,337,0.0,-999.0,98,-99.99,,,0.02,Acu-Link.com,2013-05-20 09:31:00,
2013-05-20 05:47:00,53.4,52.8,29.99,North,0,0.0,-999.0,98,-99.99,,,0.02,Acu-Link.com,2013-05-20 09:47:00,
2013-05-20 06:02:00,53.4,52.8,30.00,NNE,22,0.0,-999.0,98,-99.99,,,0.02,Acu-Link.com,2013-05-20 10:02:00,
2013-05-20 06:17:00,53.6,53.0,30.00,West,270,0.0,-999.0,98,-99.99,,,0.02,Acu-Link.com,2013-05-20 10:17:00,
2013-05-20 06:32:00,54.0,53.4,29.99,North,0,0.0,-999.0,98,-99.99,,,0.02,Acu-Link.com,2013-05-20 10:32:00,
2013-05-20 06:47:00,54.3,53.7,29.99,NNW,337,0.0,-999.0,98,-99.99,,,0.02,Acu-Link.com,2013-05-20 10:47:00,
2013-05-20 07:03:00,54.7,54.1,29.99,NNW,337,0.0,-999.0,98,-99.99,,,0.02,Acu-Link.com,2013-05-20 11:03:00,
2013-05-20 07:18:00,55.0,54.4,29.99,North,0,3.2,-999.0,98,-99.99,,,0.02,Acu-Link.com,2013-05-20 11:18:00,
2013-05-20 07:33:00,55.2,54.6,29.99,WNW,292,1.1,-999.0,98,-99.99,,,0.02,Acu-Link.com,2013-05-20 11:33:00,
2013-05-20 07:48:00,55.9,55.3,29.99,NNW,337,0.0,-999.0,98,-99.99,,,0.02,Acu-Link.com,2013-05-20 11:48:00,
2013-05-20 08:04:00,57.2,56.6,29.99,WNW,292,1.7,-999.0,98,-99.99,,,0.02,Acu-Link.com,2013-05-20 12:04:00,
2013-05-20 08:19:00,57.7,57.1,30.00,North,0,2.2,-999.0,98,-99.99,,,0.02,Acu-Link.com,2013-05-20 12:19:00,
2013-05-20 08:34:00,58.3,57.7,30.00,NNW,337,2.2,-999.0,98,-99.99,,,0.02,Acu-Link.com,2013-05-20 12:34:00,
2013-05-20 08:49:00,60.4,59.3,29.99,NNW,337,1.1,-999.0,96,-99.99,,,0.02,Acu-Link.com,2013-05-20 12:49:00,
2013-05-20 09:05:00,61.2,59.5,30.00,ENE,67,0.0,-999.0,94,-99.99,,,0.02,Acu-Link.com,2013-05-20 13:05:00,
2013-05-20 09:20:00,62.2,59.8,30.00,SSE,157,1.7,-999.0,92,-99.99,,,0.02,Acu-Link.com,2013-05-20 13:20:00,
2013-05-20 09:35:00,62.8,59.5,30.00,NNE,22,1.1,-999.0,89,-99.99,,,0.02,Acu-Link.com,2013-05-20 13:35:00,
2013-05-20 09:51:00,63.9,60.0,29.99,SW,225,0.0,-999.0,87,-99.99,,,0.02,Acu-Link.com,2013-05-20 13:51:00,
2013-05-20 10:06:00,65.5,60.5,30.00,ENE,67,0.0,-999.0,84,-99.99,,,0.02,Acu-Link.com,2013-05-20 14:06:00,
2013-05-20 10:21:00,64.9,59.9,30.00,West,270,2.2,-999.0,84,-99.99,,,0.02,Acu-Link.com,2013-05-20 14:21:00,
2013-05-20 10:37:00,64.4,59.5,29.99,East,90,0.0,-999.0,84,-99.99,,,0.02,Acu-Link.com,2013-05-20 14:37:00,
2013-05-20 10:52:00,63.9,60.0,29.99,WSW,247,0.0,-999.0,87,-99.99,,,0.02,Acu-Link.com,2013-05-20 14:52:00,
2013-05-20 11:07:00,64.8,60.8,30.00,SSW,202,2.2,-999.0,87,-99.99,,,0.02,Acu-Link.com,2013-05-20 15:07:00,
2013-05-20 11:23:00,66.4,61.4,29.98,ESE,112,3.2,-999.0,84,-99.99,,,0.02,Acu-Link.com,2013-05-20 15:23:00,
2013-05-20 11:38:00,68.0,62.3,29.97,East,90,2.7,-999.0,82,-99.99,,,0.02,Acu-Link.com,2013-05-20 15:38:00,
2013-05-20 11:53:00,69.3,62.5,29.95,West,270,1.7,-999.0,79,-99.99,,,0.02,Acu-Link.com,2013-05-20 15:53:00,
2013-05-20 12:09:00,70.5,62.9,29.96,NNW,337,0.0,-999.0,77,-99.99,,,0.02,Acu-Link.com,2013-05-20 16:09:00,
2013-05-20 12:24:00,72.3,63.5,29.95,ENE,67,2.2,-999.0,74,-99.99,,,0.02,Acu-Link.com,2013-05-20 16:24:00,
2013-05-20 12:39:00,72.9,61.7,29.95,SW,225,3.2,-999.0,68,-99.99,,,0.02,Acu-Link.com,2013-05-20 16:39:00,
2013-05-20 12:54:00,73.2,61.1,29.94,SW,225,3.2,-999.0,66,-99.99,,,0.02,Acu-Link.com,2013-05-20 16:54:00,
2013-05-20 13:10:00,76.8,63.2,29.95,ESE,112,1.1,-999.0,63,-99.99,,,0.02,Acu-Link.com,2013-05-20 17:10:00,
2013-05-20 13:25:00,74.5,62.8,29.95,West,270,1.7,-999.0,67,-99.99,,,0.02,Acu-Link.com,2013-05-20 17:25:00,
2013-05-20 13:40:00,73.4,62.6,29.95,South,180,0.0,-999.0,69,-99.99,,,0.02,Acu-Link.com,2013-05-20 17:40:00,
2013-05-20 13:55:00,72.7,62.7,29.95,NW,315,1.7,-999.0,71,-99.99,,,0.02,Acu-Link.com,2013-05-20 17:55:00,
2013-05-20 14:10:00,71.4,61.1,29.95,SSE,157,0.0,-999.0,70,-99.99,,,0.02,Acu-Link.com,2013-05-20 18:10:00,
2013-05-20 14:26:00,72.7,63.5,29.94,ESE,112,0.0,-999.0,73,-99.99,,,0.02,Acu-Link.com,2013-05-20 18:26:00,
2013-05-20 14:41:00,72.9,62.5,29.94,SE,135,1.7,-999.0,70,-99.99,,,0.02,Acu-Link.com,2013-05-20 18:41:00,
2013-05-20 14:57:00,73.2,61.6,29.94,SSE,157,2.2,-999.0,67,-99.99,,,0.02,Acu-Link.com,2013-05-20 18:57:00,
2013-05-20 15:12:00,74.5,63.2,29.93,West,270,0.0,-999.0,68,-99.99,,,0.02,Acu-Link.com,2013-05-20 19:12:00,
2013-05-20 15:27:00,75.2,62.6,29.92,SE,135,1.7,-999.0,65,-99.99,,,0.02,Acu-Link.com,2013-05-20 19:27:00,
2013-05-20 15:43:00,75.4,62.4,29.92,NE,45,1.1,-999.0,64,-99.99,,,0.02,Acu-Link.com,2013-05-20 19:43:00,
2013-05-20 15:58:00,74.5,61.9,29.92,WSW,247,0.0,-999.0,65,-99.99,,,0.02,Acu-Link.com,2013-05-20 19:58:00,
2013-05-20 16:13:00,73.4,61.8,29.93,SW,225,1.7,-999.0,67,-99.99,,,0.02,Acu-Link.com,2013-05-20 20:13:00,
2013-05-20 16:29:00,72.9,62.1,29.94,SW,225,1.1,-999.0,69,-99.99,,,0.02,Acu-Link.com,2013-05-20 20:29:00,
2013-05-20 16:44:00,72.7,61.9,29.94,NNE,22,1.7,-999.0,69,-99.99,,,0.02,Acu-Link.com,2013-05-20 20:44:00,
2013-05-20 16:59:00,71.8,62.3,29.94,South,180,0.0,-999.0,72,-99.99,,,0.02,Acu-Link.com,2013-05-20 20:59:00,
2013-05-20 17:15:00,71.2,62.1,29.94,SE,135,0.0,-999.0,73,-99.99,,,0.02,Acu-Link.com,2013-05-20 21:15:00,
2013-05-20 17:30:00,69.8,61.5,29.95,ESE,112,0.0,-999.0,75,-99.99,,,0.02,Acu-Link.com,2013-05-20 21:30:00,
2013-05-20 17:45:00,69.1,61.6,29.94,WNW,292,0.0,-999.0,77,-99.99,,,0.02,Acu-Link.com,2013-05-20 21:45:00,
2013-05-20 18:01:00,68.9,61.7,29.94,ESE,112,0.0,-999.0,78,-99.99,,,0.02,Acu-Link.com,2013-05-20 22:01:00,
2013-05-20 18:16:00,68.9,61.7,29.94,SW,225,0.0,-999.0,78,-99.99,,,0.02,Acu-Link.com,2013-05-20 22:16:00,
2013-05-20 18:31:00,68.7,61.9,29.94,WNW,292,0.0,-999.0,79,-99.99,,,0.02,Acu-Link.com,2013-05-20 22:31:00,
2013-05-20 18:46:00,68.4,61.6,29.93,SW,225,0.0,-999.0,79,-99.99,,,0.02,Acu-Link.com,2013-05-20 22:46:00,
2013-05-20 19:02:00,67.5,61.8,29.94,WSW,247,0.0,-999.0,82,-99.99,,,0.02,Acu-Link.com,2013-05-20 23:02:00,
2013-05-20 19:17:00,66.9,61.6,29.94,NW,315,0.0,-999.0,83,-99.99,,,0.02,Acu-Link.com,2013-05-20 23:17:00,
2013-05-20 19:32:00,66.4,61.7,29.93,NNW,337,0.0,-999.0,85,-99.99,,,0.02,Acu-Link.com,2013-05-20 23:32:00,
2013-05-20 19:47:00,65.5,61.5,29.94,North,0,0.0,-999.0,87,-99.99,,,0.02,Acu-Link.com,2013-05-20 23:47:00,
2013-05-20 20:03:00,64.8,60.8,29.96,NNW,337,0.0,-999.0,87,-99.99,,,0.02,Acu-Link.com,2013-05-21 00:03:00,
2013-05-20 20:18:00,63.7,60.4,29.97,NNW,337,0.0,-999.0,89,-99.99,,,0.02,Acu-Link.com,2013-05-21 00:18:00,
2013-05-20 20:33:00,62.6,59.9,29.98,NNW,337,0.0,-999.0,91,-99.99,,,0.02,Acu-Link.com,2013-05-21 00:33:00,
2013-05-20 20:49:00,62.1,59.4,29.97,SE,135,0.0,-999.0,91,-99.99,,,0.02,Acu-Link.com,2013-05-21 00:49:00,
2013-05-20 21:04:00,61.5,59.2,29.98,SSE,157,0.0,-999.0,92,-99.99,,,0.02,Acu-Link.com,2013-05-21 01:04:00,
2013-05-20 21:19:00,60.8,58.8,29.99,SW,225,0.0,-999.0,93,-99.99,,,0.02,Acu-Link.com,2013-05-21 01:19:00,
2013-05-20 21:34:00,60.6,58.6,29.98,South,180,0.0,-999.0,93,-99.99,,,0.02,Acu-Link.com,2013-05-21 01:34:00,
2013-05-20 21:50:00,60.1,58.4,29.98,NE,45,0.0,-999.0,94,-99.99,,,0.02,Acu-Link.com,2013-05-21 01:50:00,
2013-05-20 22:05:00,59.4,57.7,29.96,West,270,0.0,-999.0,94,-99.99,,,0.02,Acu-Link.com,2013-05-21 02:05:00,
2013-05-20 22:21:00,59.0,57.3,29.96,WSW,247,0.0,-999.0,94,-99.99,,,0.02,Acu-Link.com,2013-05-21 02:21:00,
2013-05-20 22:36:00,58.6,56.9,29.96,WSW,247,0.0,-999.0,94,-99.99,,,0.02,Acu-Link.com,2013-05-21 02:36:00,
2013-05-20 22:51:00,58.5,57.1,29.97,South,180,0.0,-999.0,95,-99.99,,,0.02,Acu-Link.com,2013-05-21 02:51:00,
2013-05-20 23:06:00,58.1,56.7,29.97,NNW,337,0.0,-999.0,95,-99.99,,,0.02,Acu-Link.com,2013-05-21 03:06:00,
2013-05-20 23:22:00,57.6,56.2,29.97,NE,45,0.0,-999.0,95,-99.99,,,0.02,Acu-Link.com,2013-05-21 03:22:00,
2013-05-20 23:37:00,57.2,55.8,29.96,SW,225,0.0,-999.0,95,-99.99,,,0.02,Acu-Link.com,2013-05-21 03:37:00,
2013-05-20 23:52:00,57.0,55.9,29.97,ESE,112,0.0,-999.0,96,-99.99,,,0.02,Acu-Link.com,2013-05-21 03:52:00,